Time,TemperatureF,DewpointF,PressureIn,WindDirection,WindDirectionDegrees,WindSpeedMPH,WindSpeedGustMPH,Humidity,HourlyPrecipIn,Conditions,Clouds,dailyrainin,SoftwareType,DateUTC
2013-06-04 00:01:00,52.2,35.0,30.05,NNE,22,0.0,0.0,52,0.00,,,0.00,WUHU21623XXSP,2013-06-04 07:01:00,
2013-06-04 00:06:00,52.0,35.3,30.04,NNE,22,0.0,0.0,53,0.00,,,0.00,WUHU21623XXSP,2013-06-04 07:06:00,
2013-06-04 00:11:00,51.6,35.0,30.04,NNE,22,0.0,0.0,53,0.00,,,0.00,WUHU21623XXSP,2013-06-04 07:11:00,
2013-06-04 00:17:00,51.1,34.5,30.05,NNE,22,0.0,0.0,53,0.00,,,0.00,WUHU21623XXSP,2013-06-04 07:17:00,
2013-06-04 00:22:00,50.7,34.6,30.05,NNE,22,0.0,0.0,54,0.00,,,0.00,WUHU21623XXSP,2013-06-04 07:22:00,
2013-06-04 00:27:00,50.5,34.5,30.05,NNE,22,0.0,0.0,54,0.00,,,0.00,WUHU21623XXSP,2013-06-04 07:27:00,
2013-06-04 00:32:00,50.2,34.1,30.05,NNE,22,0.0,0.0,54,0.00,,,0.00,WUHU21623XXSP,2013-06-04 07:32:00,
2013-06-04 00:38:00,49.8,33.8,30.05,NNE,22,0.0,0.0,54,0.00,,,0.00,WUHU21623XXSP,2013-06-04 07:38:00,
2013-06-04 00:43:00,49.3,33.7,30.05,NNE,22,0.0,0.0,55,0.00,,,0.00,WUHU21623XXSP,2013-06-04 07:43:00,
2013-06-04 00:48:00,48.9,33.4,30.05,NNE,22,0.0,0.0,55,0.00,,,0.00,WUHU21623XXSP,2013-06-04 07:48:00,
2013-06-04 00:53:00,48.7,33.7,30.05,NNE,22,0.0,0.0,56,0.00,,,0.00,WUHU21623XXSP,2013-06-04 07:53:00,
2013-06-04 00:59:00,48.4,33.4,30.05,NNE,22,0.0,0.0,56,0.00,,,0.00,WUHU21623XXSP,2013-06-04 07:59:00,
2013-06-04 01:04:00,48.4,33.4,30.05,NNE,22,0.0,0.0,56,0.00,,,0.00,WUHU21623XXSP,2013-06-04 08:04:00,
2013-06-04 01:09:00,48.0,33.5,30.05,NNE,22,0.0,0.0,57,0.00,,,0.00,WUHU21623XXSP,2013-06-04 08:09:00,
2013-06-04 01:14:00,47.8,33.3,30.05,NNE,22,0.0,0.0,57,0.00,,,0.00,WUHU21623XXSP,2013-06-04 08:14:00,
2013-06-04 01:19:00,47.7,33.1,30.05,NNE,22,0.0,0.0,57,0.00,,,0.00,WUHU21623XXSP,2013-06-04 08:19:00,
2013-06-04 01:25:00,47.1,32.6,30.05,NNE,22,0.0,0.0,57,0.00,,,0.00,WUHU21623XXSP,2013-06-04 08:25:00,
2013-06-04 01:30:00,47.1,32.6,30.05,NNE,22,0.0,0.0,57,0.00,,,0.00,WUHU21623XXSP,2013-06-04 08:30:00,
2013-06-04 01:35:00,46.9,32.4,30.05,NNE,22,0.0,0.0,57,0.00,,,0.00,WUHU21623XXSP,2013-06-04 08:35:00,
2013-06-04 01:40:00,46.9,32.4,30.05,NW,315,0.0,0.0,57,0.00,,,0.00,WUHU21623XXSP,2013-06-04 08:40:00,
2013-06-04 01:46:00,46.8,32.3,30.05,SSW,202,0.0,0.0,57,0.00,,,0.00,WUHU21623XXSP,2013-06-04 08:46:00,
2013-06-04 01:51:00,46.8,32.3,30.05,SW,225,2.5,2.5,57,0.00,,,0.00,WUHU21623XXSP,2013-06-04 08:51:00,
2013-06-04 01:56:00,46.8,32.3,30.04,SW,225,2.9,2.9,57,0.00,,,0.00,WUHU21623XXSP,2013-06-04 08:56:00,
2013-06-04 02:02:00,46.8,32.3,30.04,South,180,1.3,2.9,57,0.00,,,0.00,WUHU21623XXSP,2013-06-04 09:02:00,
2013-06-04 02:07:00,46.8,32.3,30.04,South,180,0.0,2.2,57,0.00,,,0.00,WUHU21623XXSP,2013-06-04 09:07:00,
2013-06-04 02:12:00,46.6,32.1,30.04,South,180,0.0,1.3,57,0.00,,,0.00,WUHU21623XXSP,2013-06-04 09:12:00,
2013-06-04 02:17:00,46.2,31.7,30.04,South,180,0.0,0.0,57,0.00,,,0.00,WUHU21623XXSP,2013-06-04 09:17:00,
2013-06-04 02:23:00,46.0,32.0,30.04,South,180,0.0,0.0,58,0.00,,,0.00,WUHU21623XXSP,2013-06-04 09:23:00,
2013-06-04 02:28:00,45.7,31.7,30.04,South,180,0.0,0.0,58,0.00,,,0.00,WUHU21623XXSP,2013-06-04 09:28:00,
2013-06-04 02:33:00,45.5,31.6,30.05,South,180,0.0,0.0,58,0.00,,,0.00,WUHU21623XXSP,2013-06-04 09:33:00,
2013-06-04 02:38:00,45.3,31.4,30.05,South,180,0.0,0.0,58,0.00,,,0.00,WUHU21623XXSP,2013-06-04 09:38:00,
2013-06-04 02:44:00,45.1,31.2,30.05,South,180,0.0,0.0,58,0.00,,,0.00,WUHU21623XXSP,2013-06-04 09:44:00,
2013-06-04 02:49:00,45.1,31.2,30.05,South,180,0.0,0.0,58,0.00,,,0.00,WUHU21623XXSP,2013-06-04 09:49:00,
2013-06-04 02:54:00,45.0,31.1,30.05,South,180,0.0,0.0,58,0.00,,,0.00,WUHU21623XXSP,2013-06-04 09:54:00,
2013-06-04 02:59:00,44.8,30.9,30.05,South,180,0.0,0.0,58,0.00,,,0.00,WUHU21623XXSP,2013-06-04 09:59:00,
2013-06-04 03:05:00,44.6,30.7,30.05,South,180,0.0,0.0,58,0.00,,,0.00,WUHU21623XXSP,2013-06-04 10:05:00,
2013-06-04 03:10:00,44.4,30.6,30.05,South,180,0.0,0.0,58,0.00,,,0.00,WUHU21623XXSP,2013-06-04 10:10:00,
2013-06-04 03:16:00,44.4,30.6,30.05,South,180,0.0,0.0,58,0.00,,,0.00,WUHU21623XXSP,2013-06-04 10:16:00,
2013-06-04 03:21:00,44.2,30.4,30.05,South,180,0.0,0.0,58,0.00,,,0.00,WUHU21623XXSP,2013-06-04 10:21:00,
2013-06-04 03:27:00,44.2,30.4,30.05,South,180,0.0,0.0,58,0.00,,,0.00,WUHU21623XXSP,2013-06-04 10:27:00,
2013-06-04 03:32:00,44.2,30.4,30.05,South,180,0.0,0.0,58,0.00,,,0.00,WUHU21623XXSP,2013-06-04 10:32:00,
2013-06-04 03:37:00,44.2,30.4,30.05,South,180,0.0,0.0,58,0.00,,,0.00,WUHU21623XXSP,2013-06-04 10:37:00,
2013-06-04 03:42:00,43.9,30.0,30.05,South,180,0.0,0.0,58,0.00,,,0.00,WUHU21623XXSP,2013-06-04 10:42:00,
2013-06-04 03:48:00,43.7,29.9,30.05,South,180,0.0,0.0,58,0.00,,,0.00,WUHU21623XXSP,2013-06-04 10:48:00,
2013-06-04 03:53:00,43.5,29.7,30.05,South,180,0.0,0.0,58,0.00,,,0.00,WUHU21623XXSP,2013-06-04 10:53:00,
2013-06-04 03:58:00,43.5,29.7,30.05,South,180,0.0,0.0,58,0.00,,,0.00,WUHU21623XXSP,2013-06-04 10:58:00,
2013-06-04 04:03:00,43.3,29.5,30.05,South,180,0.0,0.0,58,0.00,,,0.00,WUHU21623XXSP,2013-06-04 11:03:00,
2013-06-04 04:09:00,43.3,29.5,30.04,South,180,0.0,0.0,58,0.00,,,0.00,WUHU21623XXSP,2013-06-04 11:09:00,
2013-06-04 04:14:00,43.2,29.3,30.05,South,180,0.0,0.0,58,0.00,,,0.00,WUHU21623XXSP,2013-06-04 11:14:00,
2013-06-04 04:19:00,43.0,29.1,30.05,South,180,0.0,0.0,58,0.00,,,0.00,WUHU21623XXSP,2013-06-04 11:19:00,
2013-06-04 04:25:00,43.0,29.1,30.05,South,180,0.0,0.0,58,0.00,,,0.00,WUHU21623XXSP,2013-06-04 11:25:00,
2013-06-04 04:30:00,42.6,28.8,30.05,South,180,0.0,0.0,58,0.00,,,0.00,WUHU21623XXSP,2013-06-04 11:30:00,
2013-06-04 04:35:00,42.4,29.1,30.05,South,180,0.0,0.0,59,0.00,,,0.00,WUHU21623XXSP,2013-06-04 11:35:00,
2013-06-04 04:40:00,42.3,28.9,30.05,South,180,0.0,0.0,59,0.00,,,0.00,WUHU21623XXSP,2013-06-04 11:40:00,
2013-06-04 04:45:00,41.9,28.6,30.05,South,180,0.0,0.0,59,0.00,,,0.00,WUHU21623XXSP,2013-06-04 11:45:00,
2013-06-04 04:51:00,41.7,28.4,30.05,South,180,0.0,0.0,59,0.00,,,0.00,WUHU21623XXSP,2013-06-04 11:51:00,
2013-06-04 04:56:00,41.5,28.7,30.06,South,180,0.0,0.0,60,0.00,,,0.00,WUHU21623XXSP,2013-06-04 11:56:00,
2013-06-04 05:01:00,41.5,29.1,30.05,South,180,0.0,0.0,61,0.00,,,0.00,WUHU21623XXSP,2013-06-04 12:01:00,
2013-06-04 05:07:00,41.4,28.9,30.06,South,180,0.0,0.0,61,0.00,,,0.00,WUHU21623XXSP,2013-06-04 12:07:00,
2013-06-04 05:12:00,41.2,28.8,30.06,South,180,0.0,0.0,61,0.00,,,0.00,WUHU21623XXSP,2013-06-04 12:12:00,
2013-06-04 05:17:00,41.0,28.6,30.06,South,180,0.0,0.0,61,0.00,,,0.00,WUHU21623XXSP,2013-06-04 12:17:00,
2013-06-04 05:22:00,40.8,28.4,30.06,South,180,0.0,0.0,61,0.00,,,0.00,WUHU21623XXSP,2013-06-04 12:22:00,
2013-06-04 05:27:00,40.8,28.4,30.06,South,180,0.0,0.0,61,0.00,,,0.00,WUHU21623XXSP,2013-06-04 12:27:00,
2013-06-04 05:33:00,40.5,28.1,30.06,South,180,0.0,0.0,61,0.00,,,0.00,WUHU21623XXSP,2013-06-04 12:33:00,
2013-06-04 05:38:00,40.1,27.3,30.06,South,180,0.0,0.0,60,0.00,,,0.00,WUHU21623XXSP,2013-06-04 12:38:00,
2013-06-04 05:43:00,39.7,27.3,30.06,South,180,0.0,0.0,61,0.00,,,0.00,WUHU21623XXSP,2013-06-04 12:43:00,
2013-06-04 05:48:00,39.7,27.7,30.06,South,180,0.0,0.0,62,0.00,,,0.00,WUHU21623XXSP,2013-06-04 12:48:00,
2013-06-04 05:54:00,39.6,27.5,30.06,South,180,0.0,0.0,62,0.00,,,0.00,WUHU21623XXSP,2013-06-04 12:54:00,
2013-06-04 05:59:00,39.4,27.7,30.06,South,180,0.0,0.0,63,0.00,,,0.00,WUHU21623XXSP,2013-06-04 12:59:00,
2013-06-04 06:05:00,39.4,27.7,30.07,South,180,0.0,0.0,63,0.00,,,0.00,WUHU21623XXSP,2013-06-04 13:05:00,
2013-06-04 06:10:00,39.4,27.7,30.07,South,180,0.0,0.0,63,0.00,,,0.00,WUHU21623XXSP,2013-06-04 13:10:00,
2013-06-04 06:15:00,39.6,27.9,30.07,South,180,0.0,0.0,63,0.00,,,0.00,WUHU21623XXSP,2013-06-04 13:15:00,
2013-06-04 06:20:00,39.7,28.5,30.07,South,180,0.0,0.0,64,0.00,,,0.00,WUHU21623XXSP,2013-06-04 13:20:00,
2013-06-04 06:26:00,39.9,28.7,30.07,South,180,0.0,0.0,64,0.00,,,0.00,WUHU21623XXSP,2013-06-04 13:26:00,
2013-06-04 06:31:00,40.3,29.0,30.07,South,180,0.0,0.0,64,0.00,,,0.00,WUHU21623XXSP,2013-06-04 13:31:00,
2013-06-04 06:36:00,40.6,29.4,30.07,South,180,0.0,0.0,64,0.00,,,0.00,WUHU21623XXSP,2013-06-04 13:36:00,
2013-06-04 06:41:00,41.4,30.1,30.07,South,180,0.0,0.0,64,0.00,,,0.00,WUHU21623XXSP,2013-06-04 13:41:00,
2013-06-04 06:47:00,41.7,30.4,30.07,South,180,0.0,0.0,64,0.00,,,0.00,WUHU21623XXSP,2013-06-04 13:47:00,
2013-06-04 06:52:00,42.4,30.7,30.08,South,180,0.0,0.0,63,0.00,,,0.00,WUHU21623XXSP,2013-06-04 13:52:00,
2013-06-04 06:57:00,43.2,31.4,30.08,South,180,0.0,0.0,63,0.00,,,0.00,WUHU21623XXSP,2013-06-04 13:57:00,
2013-06-04 07:02:00,43.9,32.1,30.08,South,180,0.0,0.0,63,0.00,,,0.00,WUHU21623XXSP,2013-06-04 14:02:00,
2013-06-04 07:08:00,44.4,32.6,30.08,South,180,0.0,0.0,63,0.00,,,0.00,WUHU21623XXSP,2013-06-04 14:08:00,
2013-06-04 07:13:00,45.1,33.3,30.08,NW,315,0.0,0.0,63,0.00,,,0.00,WUHU21623XXSP,2013-06-04 14:13:00,
2013-06-04 07:19:00,46.0,33.7,30.08,NNW,337,0.0,0.0,62,0.00,,,0.00,WUHU21623XXSP,2013-06-04 14:19:00,
2013-06-04 07:24:00,47.1,34.8,30.08,North,0,0.0,0.0,62,0.00,,,0.00,WUHU21623XXSP,2013-06-04 14:24:00,
2013-06-04 07:29:00,47.8,35.1,30.08,North,0,0.0,0.0,61,0.00,,,0.00,WUHU21623XXSP,2013-06-04 14:29:00,
2013-06-04 07:34:00,49.1,35.4,30.08,North,0,0.0,0.0,59,0.00,,,0.00,WUHU21623XXSP,2013-06-04 14:34:00,
2013-06-04 07:40:00,50.0,35.8,30.08,NNW,337,0.0,0.0,58,0.00,,,0.00,WUHU21623XXSP,2013-06-04 14:40:00,
2013-06-04 07:45:00,51.1,35.4,30.08,West,270,0.0,0.0,55,0.00,,,0.00,WUHU21623XXSP,2013-06-04 14:45:00,
2013-06-04 07:50:00,52.7,36.9,30.09,NNW,337,0.0,0.0,55,0.00,,,0.00,WUHU21623XXSP,2013-06-04 14:50:00,
2013-06-04 07:55:00,54.0,36.7,30.08,NE,45,1.6,1.6,52,0.00,,,0.00,WUHU21623XXSP,2013-06-04 14:55:00,
2013-06-04 08:00:00,55.9,37.6,30.09,NNE,22,0.0,1.6,50,0.00,,,0.00,WUHU21623XXSP,2013-06-04 15:00:00,
2013-06-04 08:06:00,57.4,38.4,30.09,WSW,247,0.0,0.9,49,0.00,,,0.00,WUHU21623XXSP,2013-06-04 15:06:00,
2013-06-04 08:12:00,59.4,39.6,30.09,NNW,337,0.0,3.4,48,0.00,,,0.00,WUHU21623XXSP,2013-06-04 15:12:00,
2013-06-04 08:17:00,60.6,39.6,30.09,WSW,247,0.0,0.0,46,0.00,,,0.00,WUHU21623XXSP,2013-06-04 15:17:00,
2013-06-04 08:22:00,62.2,38.8,30.09,NE,45,0.0,1.1,42,0.00,,,0.00,WUHU21623XXSP,2013-06-04 15:22:00,
2013-06-04 08:27:00,63.0,39.4,30.09,NNW,337,0.0,2.0,42,0.00,,,0.00,WUHU21623XXSP,2013-06-04 15:27:00,
2013-06-04 08:33:00,64.2,40.0,30.09,NE,45,0.0,3.1,41,0.00,,,0.00,WUHU21623XXSP,2013-06-04 15:33:00,
2013-06-04 08:38:00,65.1,40.2,30.09,North,0,0.2,1.8,40,0.00,,,0.00,WUHU21623XXSP,2013-06-04 15:38:00,
2013-06-04 08:43:00,66.6,40.0,30.08,ENE,67,2.5,2.5,38,0.00,,,0.00,WUHU21623XXSP,2013-06-04 15:43:00,
2013-06-04 08:48:00,66.7,39.5,30.09,ENE,67,5.8,5.8,37,0.00,,,0.00,WUHU21623XXSP,2013-06-04 15:48:00,
2013-06-04 08:54:00,67.3,40.7,30.09,NE,45,0.0,5.8,38,0.00,,,0.00,WUHU21623XXSP,2013-06-04 15:54:00,
2013-06-04 08:59:00,67.8,41.2,30.09,NNE,22,3.8,3.8,38,0.00,,,0.00,WUHU21623XXSP,2013-06-04 15:59:00,
2013-06-04 09:04:00,68.2,40.0,30.09,NE,45,2.9,3.8,36,0.00,,,0.00,WUHU21623XXSP,2013-06-04 16:04:00,
2013-06-04 09:10:00,68.0,40.6,30.09,East,90,0.0,2.9,37,0.00,,,0.00,WUHU21623XXSP,2013-06-04 16:10:00,
2013-06-04 09:15:00,68.7,40.5,30.09,NNE,22,0.0,7.4,36,0.00,,,0.00,WUHU21623XXSP,2013-06-04 16:15:00,
2013-06-04 09:21:00,69.1,40.8,30.09,NNE,22,0.0,7.4,36,0.00,,,0.00,WUHU21623XXSP,2013-06-04 16:21:00,
2013-06-04 09:26:00,70.2,44.0,30.09,NW,315,0.0,2.7,39,0.00,,,0.00,WUHU21623XXSP,2013-06-04 16:26:00,
2013-06-04 09:31:00,70.5,41.4,30.09,NNE,22,7.4,7.4,35,0.00,,,0.00,WUHU21623XXSP,2013-06-04 16:31:00,
2013-06-04 09:36:00,70.7,42.3,30.09,ESE,112,0.0,7.4,36,0.00,,,0.00,WUHU21623XXSP,2013-06-04 16:36:00,
2013-06-04 09:42:00,71.8,43.2,30.09,NNW,337,7.2,7.2,36,0.00,,,0.00,WUHU21623XXSP,2013-06-04 16:42:00,
2013-06-04 09:47:00,72.3,43.0,30.09,ENE,67,2.7,7.2,35,0.00,,,0.00,WUHU21623XXSP,2013-06-04 16:47:00,
2013-06-04 09:52:00,72.7,43.3,30.09,NNW,337,3.1,3.1,35,0.00,,,0.00,WUHU21623XXSP,2013-06-04 16:52:00,
2013-06-04 09:57:00,73.2,43.0,30.09,NNE,22,4.3,4.3,34,0.00,,,0.00,WUHU21623XXSP,2013-06-04 16:57:00,
2013-06-04 10:03:00,73.2,43.0,30.09,SSE,157,0.0,4.3,34,0.00,,,0.00,WUHU21623XXSP,2013-06-04 17:03:00,
2013-06-04 10:09:00,73.6,42.5,30.09,NE,45,2.7,2.7,33,0.00,,,0.00,WUHU21623XXSP,2013-06-04 17:09:00,
2013-06-04 10:14:00,73.6,42.5,30.09,SE,135,2.7,2.7,33,0.00,,,0.00,WUHU21623XXSP,2013-06-04 17:14:00,
2013-06-04 10:19:00,74.3,42.4,30.09,West,270,0.0,2.7,32,0.00,,,0.00,WUHU21623XXSP,2013-06-04 17:19:00,
2013-06-04 10:24:00,74.3,43.2,30.09,North,0,4.9,4.9,33,0.00,,,0.00,WUHU21623XXSP,2013-06-04 17:24:00,
2013-06-04 10:29:00,74.7,43.5,30.09,West,270,0.0,4.9,33,0.00,,,0.00,WUHU21623XXSP,2013-06-04 17:29:00,
2013-06-04 10:35:00,75.0,43.1,30.09,ESE,112,1.6,2.5,32,0.00,,,0.00,WUHU21623XXSP,2013-06-04 17:35:00,
2013-06-04 10:40:00,75.0,43.1,30.09,SW,225,1.6,2.0,32,0.00,,,0.00,WUHU21623XXSP,2013-06-04 17:40:00,
2013-06-04 10:45:00,75.9,44.6,30.09,North,0,2.7,2.7,33,0.00,,,0.00,WUHU21623XXSP,2013-06-04 17:45:00,
2013-06-04 10:50:00,76.3,44.2,30.09,NNE,22,0.0,6.7,32,0.00,,,0.00,WUHU21623XXSP,2013-06-04 17:50:00,
2013-06-04 10:56:00,76.1,44.0,30.09,ENE,67,0.0,6.7,32,0.00,,,0.00,WUHU21623XXSP,2013-06-04 17:56:00,
2013-06-04 11:01:00,76.5,44.4,30.08,West,270,0.0,4.3,32,0.00,,,0.00,WUHU21623XXSP,2013-06-04 18:01:00,
2013-06-04 11:07:00,76.5,44.4,30.08,SW,225,0.0,3.6,32,0.00,,,0.00,WUHU21623XXSP,2013-06-04 18:07:00,
2013-06-04 11:12:00,76.8,43.9,30.08,NE,45,3.4,3.6,31,0.00,,,0.00,WUHU21623XXSP,2013-06-04 18:12:00,
2013-06-04 11:17:00,76.6,43.8,30.08,SW,225,5.6,5.6,31,0.00,,,0.00,WUHU21623XXSP,2013-06-04 18:17:00,
2013-06-04 11:22:00,77.0,44.1,30.08,ENE,67,4.5,5.6,31,0.00,,,0.00,WUHU21623XXSP,2013-06-04 18:22:00,
2013-06-04 11:28:00,76.8,43.9,30.08,ENE,67,0.0,4.5,31,0.00,,,0.00,WUHU21623XXSP,2013-06-04 18:28:00,
2013-06-04 11:33:00,76.8,44.7,30.08,East,90,0.0,6.5,32,0.00,,,0.00,WUHU21623XXSP,2013-06-04 18:33:00,
2013-06-04 11:38:00,77.2,45.8,30.08,West,270,0.0,6.5,33,0.00,,,0.00,WUHU21623XXSP,2013-06-04 18:38:00,
2013-06-04 11:43:00,78.6,46.2,30.08,NE,45,2.0,2.0,32,0.00,,,0.00,WUHU21623XXSP,2013-06-04 18:43:00,
2013-06-04 11:49:00,79.0,44.9,30.08,ENE,67,0.0,7.6,30,0.00,,,0.00,WUHU21623XXSP,2013-06-04 18:49:00,
2013-06-04 11:54:00,79.0,44.9,30.08,NNE,22,8.1,8.1,30,0.00,,,0.00,WUHU21623XXSP,2013-06-04 18:54:00,
2013-06-04 11:59:00,79.2,45.1,30.08,NNE,22,6.0,8.1,30,0.00,,,0.00,WUHU21623XXSP,2013-06-04 18:59:00,
2013-06-04 12:04:00,79.0,44.9,30.07,NE,45,3.6,7.4,30,0.00,,,0.00,WUHU21623XXSP,2013-06-04 19:04:00,
2013-06-04 12:10:00,79.3,45.3,30.07,NNE,22,4.3,7.4,30,0.00,,,0.00,WUHU21623XXSP,2013-06-04 19:10:00,
2013-06-04 12:16:00,79.5,45.4,30.07,ENE,67,5.8,5.8,30,0.00,,,0.00,WUHU21623XXSP,2013-06-04 19:16:00,
2013-06-04 12:21:00,79.5,44.4,30.06,ENE,67,1.8,5.8,29,0.00,,,0.00,WUHU21623XXSP,2013-06-04 19:21:00,
2013-06-04 12:26:00,79.5,45.4,30.06,NNE,22,5.8,7.4,30,0.00,,,0.00,WUHU21623XXSP,2013-06-04 19:26:00,
2013-06-04 12:31:00,79.5,45.4,30.06,NNE,22,6.9,7.4,30,0.00,,,0.00,WUHU21623XXSP,2013-06-04 19:31:00,
2013-06-04 12:37:00,79.5,45.4,30.06,NE,45,2.9,6.9,30,0.00,,,0.00,WUHU21623XXSP,2013-06-04 19:37:00,
2013-06-04 12:42:00,79.7,44.5,30.06,NE,45,0.0,7.4,29,0.00,,,0.00,WUHU21623XXSP,2013-06-04 19:42:00,
2013-06-04 12:47:00,80.4,46.2,30.06,North,0,0.0,8.1,30,0.00,,,0.00,WUHU21623XXSP,2013-06-04 19:47:00,
2013-06-04 12:52:00,80.8,45.5,30.06,NE,45,0.0,8.1,29,0.00,,,0.00,WUHU21623XXSP,2013-06-04 19:52:00,
2013-06-04 12:58:00,80.8,45.5,30.06,NE,45,1.8,6.9,29,0.00,,,0.00,WUHU21623XXSP,2013-06-04 19:58:00,
2013-06-04 13:03:00,81.1,44.7,30.06,West,270,2.5,8.5,28,0.00,,,0.00,WUHU21623XXSP,2013-06-04 20:03:00,
2013-06-04 13:08:00,81.1,44.7,30.06,ENE,67,5.6,8.5,28,0.00,,,0.00,WUHU21623XXSP,2013-06-04 20:08:00,
2013-06-04 13:13:00,81.1,44.7,30.06,NE,45,7.4,7.4,28,0.00,,,0.00,WUHU21623XXSP,2013-06-04 20:13:00,
2013-06-04 13:19:00,81.1,44.7,30.06,NNE,22,4.0,7.4,28,0.00,,,0.00,WUHU21623XXSP,2013-06-04 20:19:00,
2013-06-04 13:24:00,81.3,44.9,30.06,NNW,337,1.8,4.0,28,0.00,,,0.00,WUHU21623XXSP,2013-06-04 20:24:00,
2013-06-04 13:29:00,81.3,44.9,30.06,NNE,22,6.7,6.7,28,0.00,,,0.00,WUHU21623XXSP,2013-06-04 20:29:00,
2013-06-04 13:34:00,81.1,43.7,30.06,NE,45,4.9,6.7,27,0.00,,,0.00,WUHU21623XXSP,2013-06-04 20:34:00,
2013-06-04 13:40:00,81.1,43.7,30.06,NE,45,1.1,4.9,27,0.00,,,0.00,WUHU21623XXSP,2013-06-04 20:40:00,
2013-06-04 13:45:00,80.6,43.3,30.06,ENE,67,1.8,7.2,27,0.00,,,0.00,WUHU21623XXSP,2013-06-04 20:45:00,
2013-06-04 13:50:00,80.6,43.3,30.06,NE,45,0.0,7.4,27,0.00,,,0.00,WUHU21623XXSP,2013-06-04 20:50:00,
2013-06-04 13:55:00,80.8,44.5,30.06,NNW,337,4.5,7.4,28,0.00,,,0.00,WUHU21623XXSP,2013-06-04 20:55:00,
2013-06-04 14:00:00,81.1,44.7,30.06,North,0,0.0,6.7,28,0.00,,,0.00,WUHU21623XXSP,2013-06-04 21:00:00,
2013-06-04 14:06:00,81.3,44.9,30.05,ENE,67,4.3,10.5,28,0.00,,,0.00,WUHU21623XXSP,2013-06-04 21:06:00,
2013-06-04 14:11:00,80.8,43.4,30.06,SE,135,2.7,10.5,27,0.00,,,0.00,WUHU21623XXSP,2013-06-04 21:11:00,
2013-06-04 14:16:00,80.4,43.1,30.05,NNE,22,1.3,8.1,27,0.00,,,0.00,WUHU21623XXSP,2013-06-04 21:16:00,
2013-06-04 14:21:00,80.8,43.4,30.05,ENE,67,0.0,5.4,27,0.00,,,0.00,WUHU21623XXSP,2013-06-04 21:21:00,
2013-06-04 14:27:00,80.8,43.4,30.05,NNE,22,3.6,5.4,27,0.00,,,0.00,WUHU21623XXSP,2013-06-04 21:27:00,
2013-06-04 14:32:00,81.0,43.6,30.05,SE,135,6.7,6.7,27,0.00,,,0.00,WUHU21623XXSP,2013-06-04 21:32:00,
2013-06-04 14:37:00,80.8,43.4,30.04,SE,135,3.6,6.7,27,0.00,,,0.00,WUHU21623XXSP,2013-06-04 21:37:00,
2013-06-04 14:42:00,80.8,43.4,30.04,ENE,67,4.0,4.0,27,0.00,,,0.00,WUHU21623XXSP,2013-06-04 21:42:00,
2013-06-04 14:48:00,81.1,43.7,30.04,North,0,0.0,4.0,27,0.00,,,0.00,WUHU21623XXSP,2013-06-04 21:48:00,
2013-06-04 14:53:00,81.1,43.7,30.04,SE,135,0.0,14.3,27,0.00,,,0.00,WUHU21623XXSP,2013-06-04 21:53:00,
2013-06-04 14:58:00,80.8,43.4,30.04,ENE,67,0.0,14.3,27,0.00,,,0.00,WUHU21623XXSP,2013-06-04 21:58:00,
2013-06-04 15:03:00,81.0,43.6,30.04,NE,45,3.6,3.6,27,0.00,,,0.00,WUHU21623XXSP,2013-06-04 22:03:00,
2013-06-04 15:08:00,80.8,43.4,30.04,NE,45,2.5,4.3,27,0.00,,,0.00,WUHU21623XXSP,2013-06-04 22:08:00,
2013-06-04 15:14:00,80.8,43.4,30.04,NNE,22,5.8,5.8,27,0.00,,,0.00,WUHU21623XXSP,2013-06-04 22:14:00,
2013-06-04 15:19:00,80.8,43.4,30.04,NW,315,4.3,7.6,27,0.00,,,0.00,WUHU21623XXSP,2013-06-04 22:19:00,
2013-06-04 15:24:00,80.8,43.4,30.04,WSW,247,4.9,4.9,27,0.00,,,0.00,WUHU21623XXSP,2013-06-04 22:24:00,
2013-06-04 15:29:00,80.8,43.4,30.04,WSW,247,0.9,4.9,27,0.00,,,0.00,WUHU21623XXSP,2013-06-04 22:29:00,
2013-06-04 15:35:00,80.8,43.4,30.04,WSW,247,2.0,3.6,27,0.00,,,0.00,WUHU21623XXSP,2013-06-04 22:35:00,
2013-06-04 15:40:00,80.8,43.4,30.04,WSW,247,0.0,3.1,27,0.00,,,0.00,WUHU21623XXSP,2013-06-04 22:40:00,
2013-06-04 15:45:00,81.0,43.6,30.04,WSW,247,1.3,2.7,27,0.00,,,0.00,WUHU21623XXSP,2013-06-04 22:45:00,
2013-06-04 15:50:00,80.8,42.4,30.04,WSW,247,4.7,6.5,26,0.00,,,0.00,WUHU21623XXSP,2013-06-04 22:50:00,
2013-06-04 15:56:00,80.2,41.9,30.04,WSW,247,0.0,8.3,26,0.00,,,0.00,WUHU21623XXSP,2013-06-04 22:56:00,
2013-06-04 16:01:00,79.9,42.6,30.03,WSW,247,2.7,4.0,27,0.00,,,0.00,WUHU21623XXSP,2013-06-04 23:01:00,
2013-06-04 16:06:00,79.7,42.5,30.03,WSW,247,3.1,6.5,27,0.00,,,0.00,WUHU21623XXSP,2013-06-04 23:06:00,
2013-06-04 16:11:00,79.5,42.3,30.03,WSW,247,4.0,6.5,27,0.00,,,0.00,WUHU21623XXSP,2013-06-04 23:11:00,
2013-06-04 16:17:00,79.7,42.5,30.03,WSW,247,3.6,4.0,27,0.00,,,0.00,WUHU21623XXSP,2013-06-04 23:17:00,
2013-06-04 16:22:00,79.9,42.6,30.03,WSW,247,0.0,3.6,27,0.00,,,0.00,WUHU21623XXSP,2013-06-04 23:22:00,
2013-06-04 16:27:00,79.9,42.6,30.03,WSW,247,10.5,10.5,27,0.00,,,0.00,WUHU21623XXSP,2013-06-04 23:27:00,
2013-06-04 16:32:00,79.7,42.5,30.03,WSW,247,0.4,10.5,27,0.00,,,0.00,WUHU21623XXSP,2013-06-04 23:32:00,
2013-06-04 16:38:00,79.5,42.3,30.03,WSW,247,0.7,2.0,27,0.00,,,0.00,WUHU21623XXSP,2013-06-04 23:38:00,
2013-06-04 16:43:00,79.3,42.1,30.03,WSW,247,7.8,7.8,27,0.00,,,0.00,WUHU21623XXSP,2013-06-04 23:43:00,
2013-06-04 16:48:00,79.2,42.0,30.03,WSW,247,3.6,7.8,27,0.00,,,0.00,WUHU21623XXSP,2013-06-04 23:48:00,
2013-06-04 16:53:00,78.6,41.5,30.03,NNE,22,8.5,8.5,27,0.00,,,0.00,WUHU21623XXSP,2013-06-04 23:53:00,
2013-06-04 16:58:00,78.1,42.1,30.03,NNE,22,7.4,8.5,28,0.00,,,0.00,WUHU21623XXSP,2013-06-04 23:58:00,
2013-06-04 17:04:00,77.9,42.0,30.03,NNE,22,0.0,7.4,28,0.00,,,0.00,WUHU21623XXSP,2013-06-05 00:04:00,
2013-06-04 17:09:00,77.7,41.8,30.03,NE,45,1.3,5.6,28,0.00,,,0.00,WUHU21623XXSP,2013-06-05 00:09:00,
2013-06-04 17:14:00,77.4,41.5,30.03,NE,45,0.0,6.3,28,0.00,,,0.00,WUHU21623XXSP,2013-06-05 00:14:00,
2013-06-04 17:19:00,77.4,41.5,30.03,NW,315,8.3,8.3,28,0.00,,,0.00,WUHU21623XXSP,2013-06-05 00:19:00,
2013-06-04 17:26:00,77.2,41.4,30.02,NE,45,1.6,8.3,28,0.00,,,0.00,WUHU21623XXSP,2013-06-05 00:26:00,
2013-06-04 17:31:00,77.0,41.3,30.02,NE,45,2.5,7.6,28,0.00,,,0.00,WUHU21623XXSP,2013-06-05 00:31:00,
2013-06-04 17:36:00,76.8,41.1,30.02,NE,45,0.0,7.6,28,0.00,,,0.00,WUHU21623XXSP,2013-06-05 00:36:00,
2013-06-04 17:41:00,76.8,41.1,30.02,ENE,67,0.0,2.7,28,0.00,,,0.00,WUHU21623XXSP,2013-06-05 00:41:00,
2013-06-04 17:46:00,76.8,41.1,30.03,NNE,22,1.3,8.9,28,0.00,,,0.00,WUHU21623XXSP,2013-06-05 00:46:00,
2013-06-04 17:52:00,76.6,40.9,30.03,NE,45,3.4,6.9,28,0.00,,,0.00,WUHU21623XXSP,2013-06-05 00:52:00,
2013-06-04 17:57:00,76.5,40.8,30.02,ENE,67,6.3,6.3,28,0.00,,,0.00,WUHU21623XXSP,2013-06-05 00:57:00,
2013-06-04 18:02:00,76.5,40.8,30.02,NE,45,4.5,6.3,28,0.00,,,0.00,WUHU21623XXSP,2013-06-05 01:02:00,
2013-06-04 18:07:00,76.3,40.6,30.02,WSW,247,0.0,4.5,28,0.00,,,0.00,WUHU21623XXSP,2013-06-05 01:07:00,
2013-06-04 18:13:00,76.1,40.5,30.02,WSW,247,6.0,6.0,28,0.00,,,0.00,WUHU21623XXSP,2013-06-05 01:13:00,
2013-06-04 18:18:00,76.1,40.5,30.02,WSW,247,0.0,6.0,28,0.00,,,0.00,WUHU21623XXSP,2013-06-05 01:18:00,
2013-06-04 18:23:00,76.1,40.5,30.02,WSW,247,1.3,7.6,28,0.00,,,0.00,WUHU21623XXSP,2013-06-05 01:23:00,
2013-06-04 18:28:00,75.9,40.3,30.02,NNW,337,7.6,7.6,28,0.00,,,0.00,WUHU21623XXSP,2013-06-05 01:28:00,
2013-06-04 18:34:00,75.9,40.3,30.02,WSW,247,6.0,7.6,28,0.00,,,0.00,WUHU21623XXSP,2013-06-05 01:34:00,
2013-06-04 18:39:00,75.7,40.1,30.02,WSW,247,8.3,8.3,28,0.00,,,0.00,WUHU21623XXSP,2013-06-05 01:39:00,
2013-06-04 18:44:00,75.6,40.0,30.02,WSW,247,4.0,8.3,28,0.00,,,0.00,WUHU21623XXSP,2013-06-05 01:44:00,
2013-06-04 18:49:00,75.4,39.8,30.02,WSW,247,0.0,4.9,28,0.00,,,0.00,WUHU21623XXSP,2013-06-05 01:49:00,
2013-06-04 18:54:00,75.2,39.7,30.02,WSW,247,2.0,7.4,28,0.00,,,0.00,WUHU21623XXSP,2013-06-05 01:54:00,
2013-06-04 19:00:00,75.0,40.5,30.02,WSW,247,1.1,7.4,29,0.00,,,0.00,WUHU21623XXSP,2013-06-05 02:00:00,
2013-06-04 19:05:00,75.0,40.5,30.02,WSW,247,9.8,9.8,29,0.00,,,0.00,WUHU21623XXSP,2013-06-05 02:05:00,
2013-06-04 19:10:00,74.8,40.4,30.02,NE,45,3.6,9.8,29,0.00,,,0.00,WUHU21623XXSP,2013-06-05 02:10:00,
2013-06-04 19:15:00,74.7,40.2,30.02,North,0,2.0,3.6,29,0.00,,,0.00,WUHU21623XXSP,2013-06-05 02:15:00,
2013-06-04 19:21:00,74.5,40.0,30.03,NE,45,0.0,2.2,29,0.00,,,0.00,WUHU21623XXSP,2013-06-05 02:21:00,
2013-06-04 19:26:00,74.3,39.9,30.02,NNE,22,3.1,3.1,29,0.00,,,0.00,WUHU21623XXSP,2013-06-05 02:26:00,
2013-06-04 19:32:00,74.1,40.7,30.02,East,90,1.6,3.1,30,0.00,,,0.00,WUHU21623XXSP,2013-06-05 02:32:00,
2013-06-04 19:37:00,73.9,40.6,30.03,NE,45,2.2,7.2,30,0.00,,,0.00,WUHU21623XXSP,2013-06-05 02:37:00,
2013-06-04 19:42:00,73.8,40.4,30.03,ENE,67,0.0,7.2,30,0.00,,,0.00,WUHU21623XXSP,2013-06-05 02:42:00,
2013-06-04 19:47:00,73.4,40.9,30.03,NE,45,0.0,5.6,31,0.00,,,0.00,WUHU21623XXSP,2013-06-05 02:47:00,
2013-06-04 19:53:00,73.2,40.7,30.03,NE,45,0.7,0.7,31,0.00,,,0.00,WUHU21623XXSP,2013-06-05 02:53:00,
2013-06-04 19:58:00,73.0,41.3,30.03,NNE,22,0.0,4.5,32,0.00,,,0.00,WUHU21623XXSP,2013-06-05 02:58:00,
2013-06-04 20:03:00,72.7,41.0,30.03,North,0,7.4,7.4,32,0.00,,,0.00,WUHU21623XXSP,2013-06-05 03:03:00,
2013-06-04 20:08:00,72.3,40.7,30.04,NE,45,0.0,7.4,32,0.00,,,0.00,WUHU21623XXSP,2013-06-05 03:08:00,
2013-06-04 20:14:00,72.0,41.2,30.04,ENE,67,0.0,0.0,33,0.00,,,0.00,WUHU21623XXSP,2013-06-05 03:14:00,
2013-06-04 20:19:00,71.8,41.0,30.04,NNE,22,0.0,2.2,33,0.00,,,0.00,WUHU21623XXSP,2013-06-05 03:19:00,
2013-06-04 20:24:00,71.4,40.7,30.04,NNE,22,0.0,2.2,33,0.00,,,0.00,WUHU21623XXSP,2013-06-05 03:24:00,
2013-06-04 20:29:00,71.2,40.5,30.04,NE,45,0.0,0.0,33,0.00,,,0.00,WUHU21623XXSP,2013-06-05 03:29:00,
2013-06-04 20:34:00,70.9,41.0,30.04,NNE,22,5.4,5.4,34,0.00,,,0.00,WUHU21623XXSP,2013-06-05 03:34:00,
2013-06-04 20:40:00,70.5,40.6,30.04,NE,45,0.0,6.9,34,0.00,,,0.00,WUHU21623XXSP,2013-06-05 03:40:00,
2013-06-04 20:46:00,70.0,40.2,30.04,ENE,67,0.0,1.6,34,0.00,,,0.00,WUHU21623XXSP,2013-06-05 03:46:00,
2013-06-04 20:52:00,69.6,40.6,30.04,NNE,22,3.8,3.8,35,0.00,,,0.00,WUHU21623XXSP,2013-06-05 03:52:00,
2013-06-04 20:57:00,69.4,40.4,30.04,NNE,22,0.0,3.8,35,0.00,,,0.00,WUHU21623XXSP,2013-06-05 03:57:00,
2013-06-04 21:02:00,69.1,40.1,30.04,NNE,22,2.7,2.7,35,0.00,,,0.00,WUHU21623XXSP,2013-06-05 04:02:00,
2013-06-04 21:07:00,68.7,39.8,30.04,NNE,22,0.0,2.7,35,0.00,,,0.00,WUHU21623XXSP,2013-06-05 04:07:00,
2013-06-04 21:13:00,68.4,40.2,30.05,NNE,22,0.0,0.0,36,0.00,,,0.00,WUHU21623XXSP,2013-06-05 04:13:00,
2013-06-04 21:18:00,67.6,39.5,30.05,NNE,22,0.0,0.0,36,0.00,,,0.00,WUHU21623XXSP,2013-06-05 04:18:00,
2013-06-04 21:23:00,67.3,39.2,30.05,NNE,22,0.0,0.0,36,0.00,,,0.00,WUHU21623XXSP,2013-06-05 04:23:00,
2013-06-04 21:28:00,66.4,39.2,30.06,NNE,22,0.0,0.0,37,0.00,,,0.00,WUHU21623XXSP,2013-06-05 04:28:00,
2013-06-04 21:34:00,65.8,38.7,30.06,NNE,22,0.0,0.0,37,0.00,,,0.00,WUHU21623XXSP,2013-06-05 04:34:00,
2013-06-04 21:39:00,64.8,38.4,30.06,NNE,22,0.0,0.0,38,0.00,,,0.00,WUHU21623XXSP,2013-06-05 04:39:00,
2013-06-04 21:44:00,64.2,38.7,30.06,NNE,22,0.0,0.0,39,0.00,,,0.00,WUHU21623XXSP,2013-06-05 04:44:00,
2013-06-04 21:49:00,63.7,38.2,30.06,NNE,22,0.0,0.0,39,0.00,,,0.00,WUHU21623XXSP,2013-06-05 04:49:00,
2013-06-04 21:54:00,63.0,38.3,30.06,NNE,22,0.0,0.0,40,0.00,,,0.00,WUHU21623XXSP,2013-06-05 04:54:00,
2013-06-04 22:00:00,62.4,37.8,30.06,NNE,22,0.0,0.0,40,0.00,,,0.00,WUHU21623XXSP,2013-06-05 05:00:00,
2013-06-04 22:05:00,61.9,37.9,30.06,NNE,22,0.0,0.0,41,0.00,,,0.00,WUHU21623XXSP,2013-06-05 05:05:00,
2013-06-04 22:10:00,61.7,37.7,30.06,NNE,22,0.0,0.0,41,0.00,,,0.00,WUHU21623XXSP,2013-06-05 05:10:00,
2013-06-04 22:15:00,61.5,37.5,30.06,NNE,22,0.0,0.0,41,0.00,,,0.00,WUHU21623XXSP,2013-06-05 05:15:00,
2013-06-04 22:21:00,61.3,38.0,30.06,NNE,22,0.0,0.0,42,0.00,,,0.00,WUHU21623XXSP,2013-06-05 05:21:00,
2013-06-04 22:26:00,60.6,37.3,30.06,NNE,22,0.0,0.0,42,0.00,,,0.00,WUHU21623XXSP,2013-06-05 05:26:00,
2013-06-04 22:31:00,60.4,37.1,30.06,NNE,22,0.0,0.0,42,0.00,,,0.00,WUHU21623XXSP,2013-06-05 05:31:00,
2013-06-04 22:37:00,60.1,36.8,30.06,NNE,22,0.0,0.0,42,0.00,,,0.00,WUHU21623XXSP,2013-06-05 05:37:00,
2013-06-04 22:42:00,59.7,36.5,30.06,West,270,2.0,2.0,42,0.00,,,0.00,WUHU21623XXSP,2013-06-05 05:42:00,
2013-06-04 22:47:00,59.4,36.8,30.06,West,270,0.0,2.0,43,0.00,,,0.00,WUHU21623XXSP,2013-06-05 05:47:00,
2013-06-04 22:52:00,58.8,36.3,30.06,West,270,0.0,0.0,43,0.00,,,0.00,WUHU21623XXSP,2013-06-05 05:52:00,
2013-06-04 22:58:00,58.8,36.8,30.06,West,270,0.0,0.0,44,0.00,,,0.00,WUHU21623XXSP,2013-06-05 05:58:00,
2013-06-04 23:03:00,58.1,36.2,30.06,West,270,0.0,0.0,44,0.00,,,0.00,WUHU21623XXSP,2013-06-05 06:03:00,
2013-06-04 23:08:00,57.7,36.4,30.06,WSW,247,1.3,1.8,45,0.00,,,0.00,WUHU21623XXSP,2013-06-05 06:08:00,
2013-06-04 23:13:00,57.4,36.1,30.06,WSW,247,0.9,1.8,45,0.00,,,0.00,WUHU21623XXSP,2013-06-05 06:13:00,
2013-06-04 23:18:00,57.0,36.4,30.06,WSW,247,0.7,2.0,46,0.00,,,0.00,WUHU21623XXSP,2013-06-05 06:18:00,
2013-06-04 23:24:00,56.7,36.0,30.07,WSW,247,1.3,2.0,46,0.00,,,0.00,WUHU21623XXSP,2013-06-05 06:24:00,
2013-06-04 23:29:00,56.5,35.8,30.06,WSW,247,2.7,2.7,46,0.00,,,0.00,WUHU21623XXSP,2013-06-05 06:29:00,
2013-06-04 23:34:00,56.3,36.2,30.07,WSW,247,1.6,2.7,47,0.00,,,0.00,WUHU21623XXSP,2013-06-05 06:34:00,
2013-06-04 23:39:00,56.1,36.0,30.07,WSW,247,0.7,1.6,47,0.00,,,0.00,WUHU21623XXSP,2013-06-05 06:39:00,
2013-06-04 23:45:00,56.1,36.0,30.07,WSW,247,2.0,2.0,47,0.00,,,0.00,WUHU21623XXSP,2013-06-05 06:45:00,
2013-06-04 23:50:00,55.9,35.9,30.07,WSW,247,2.0,2.0,47,0.00,,,0.00,WUHU21623XXSP,2013-06-05 06:50:00,
2013-06-04 23:55:00,55.9,35.9,30.07,WSW,247,1.8,2.0,47,0.00,,,0.00,WUHU21623XXSP,2013-06-05 06:55:00,